createdAt,value
2022-09-03T00:01:23.951Z,100960.00
2022-09-03T00:03:59.965Z,100960.00
2022-09-03T00:06:33.777Z,100957.00
2022-09-03T00:09:24.812Z,100959.00
2022-09-03T00:12:06.403Z,100959.00
2022-09-03T00:14:40.983Z,100965.00
2022-09-03T00:17:14.257Z,100965.00
2022-09-03T00:19:46.411Z,100954.00
2022-09-03T00:22:17.907Z,100955.00
2022-09-03T00:24:45.878Z,100953.00
2022-09-03T00:27:16.426Z,100954.00
2022-09-03T00:29:52.650Z,100956.00
2022-09-03T00:32:28.096Z,100949.00
2022-09-03T00:35:01.038Z,100952.00
2022-09-03T00:37:28.685Z,100951.00
2022-09-03T00:40:00.690Z,100958.00
2022-09-03T00:42:34.228Z,100959.00
2022-09-03T00:45:48.574Z,100955.00
2022-09-03T00:48:18.480Z,100952.00
2022-09-03T00:51:17.394Z,100952.00
2022-09-03T00:54:04.478Z,100944.00
2022-09-03T00:57:00.293Z,100953.00
2022-09-03T00:59:41.307Z,100947.00
2022-09-03T01:02:49.197Z,100949.00
2022-09-03T01:05:56.541Z,100933.00
2022-09-03T01:08:53.785Z,100944.00
2022-09-03T01:11:23.153Z,100940.00
2022-09-03T01:14:00.259Z,100930.00
2022-09-03T01:16:28.329Z,100937.00
2022-09-03T01:19:03.809Z,100934.00
2022-09-03T01:21:49.816Z,100925.00
2022-09-03T01:24:34.049Z,100919.00
2022-09-03T01:27:43.913Z,100937.00
2022-09-03T01:30:20.324Z,100926.00
2022-09-03T01:32:58.474Z,100923.00
2022-09-03T01:35:42.399Z,100924.00
2022-09-03T01:38:17.517Z,100927.00
2022-09-03T01:41:27.742Z,100930.00
2022-09-03T01:44:42.369Z,100925.00
2022-09-03T01:51:11.815Z,100932.00
2022-09-03T01:54:20.839Z,100925.00
2022-09-03T01:57:35.736Z,100929.00
2022-09-03T02:00:15.075Z,100934.00
2022-09-03T02:02:44.333Z,100930.00
2022-09-03T02:05:12.404Z,100925.00
2022-09-03T02:08:09.763Z,100925.00
2022-09-03T02:10:44.297Z,100928.00
2022-09-03T02:13:14.887Z,100922.00
2022-09-03T02:15:45.752Z,100917.00
2022-09-03T02:18:19.158Z,100932.00
2022-09-03T02:20:47.927Z,100935.00
2022-09-03T02:23:15.540Z,100924.00
2022-09-03T02:25:48.491Z,100925.00
2022-09-03T02:28:17.146Z,100931.00
2022-09-03T02:30:44.637Z,100934.00
2022-09-03T02:33:11.487Z,100926.00
2022-09-03T02:35:38.069Z,100932.00
2022-09-03T02:38:16.994Z,100931.00
2022-09-03T02:40:44.417Z,100932.00
2022-09-03T02:43:15.092Z,100922.00
2022-09-03T02:45:50.177Z,100925.00
2022-09-03T02:48:21.511Z,100926.00
2022-09-03T02:50:48.219Z,100926.00
2022-09-03T02:53:14.904Z,100925.00
2022-09-03T02:55:41.461Z,100931.00
2022-09-03T02:58:08.800Z,100922.00
2022-09-03T03:00:36.681Z,100926.00
2022-09-03T03:03:04.390Z,100932.00
2022-09-03T03:05:47.421Z,100930.00
2022-09-03T03:08:21.230Z,100935.00
2022-09-03T03:10:49.471Z,100933.00
2022-09-03T03:13:16.614Z,100929.00
2022-09-03T03:15:44.179Z,100919.00
2022-09-03T03:18:12.044Z,100913.00
2022-09-03T03:20:38.926Z,100927.00
2022-09-03T03:23:05.819Z,100924.00
2022-09-03T03:25:33.778Z,100935.00
2022-09-03T03:28:01.029Z,100928.00
2022-09-03T03:30:27.901Z,100937.00
2022-09-03T03:32:55.062Z,100922.00
2022-09-03T03:35:21.566Z,100931.00
2022-09-03T03:37:48.087Z,100935.00
2022-09-03T03:40:15.373Z,100939.00
2022-09-03T03:42:42.345Z,100940.00
2022-09-03T03:45:10.226Z,100945.00
2022-09-03T03:47:37.187Z,100943.00
2022-09-03T03:50:04.718Z,100947.00
2022-09-03T03:52:31.338Z,100942.00
2022-09-03T03:54:57.922Z,100935.00
2022-09-03T03:57:24.603Z,100935.00
2022-09-03T03:59:51.144Z,100938.00
2022-09-03T04:02:18.100Z,100940.00
2022-09-03T04:04:44.788Z,100941.00
2022-09-03T04:07:11.355Z,100938.00
2022-09-03T04:09:38.707Z,100946.00
2022-09-03T04:12:08.588Z,100941.00
2022-09-03T04:14:35.401Z,100932.00
2022-09-03T04:17:03.034Z,100932.00
2022-09-03T04:19:30.213Z,100937.00
2022-09-03T04:21:56.840Z,100933.00
2022-09-03T04:24:23.920Z,100932.00
2022-09-03T04:26:50.562Z,100928.00
2022-09-03T04:29:18.340Z,100936.00
2022-09-03T04:32:04.981Z,100928.00
2022-09-03T04:34:31.984Z,100936.00
2022-09-03T04:36:59.101Z,100942.00
2022-09-03T04:39:26.220Z,100924.00
2022-09-03T04:41:52.983Z,100915.00
2022-09-03T04:44:19.702Z,100930.00
2022-09-03T04:46:47.910Z,100928.00
2022-09-03T04:49:14.822Z,100939.00
2022-09-03T04:51:41.954Z,100922.00
2022-09-03T04:54:10.237Z,100935.00
2022-09-03T04:56:39.651Z,100926.00
2022-09-03T04:59:08.793Z,100930.00
2022-09-03T05:01:37.561Z,100940.00
2022-09-03T05:04:05.151Z,100943.00
2022-09-03T05:06:32.534Z,100942.00
2022-09-03T05:08:59.655Z,100937.00
2022-09-03T05:11:27.242Z,100924.00
2022-09-03T05:13:57.997Z,100936.00
2022-09-03T05:16:25.939Z,100944.00
2022-09-03T05:18:54.166Z,100947.00
2022-09-03T05:21:21.501Z,100944.00
2022-09-03T05:23:50.733Z,100942.00
2022-09-03T05:26:22.213Z,100947.00
2022-09-03T05:28:53.949Z,100945.00
2022-09-03T05:31:29.579Z,100943.00
2022-09-03T05:34:00.393Z,100946.00
2022-09-03T05:36:34.961Z,100949.00
2022-09-03T05:39:01.655Z,100950.00
2022-09-03T05:41:32.438Z,100947.00
2022-09-03T05:43:59.738Z,100952.00
2022-09-03T05:46:32.400Z,100948.00
2022-09-03T05:49:05.030Z,100961.00
2022-09-03T05:51:36.684Z,100940.00
2022-09-03T05:54:03.971Z,100959.00
2022-09-03T05:56:34.925Z,100957.00
2022-09-03T05:59:09.428Z,100953.00
2022-09-03T06:01:41.126Z,100961.00
2022-09-03T06:04:14.085Z,100955.00
2022-09-03T06:06:43.497Z,100952.00
2022-09-03T06:09:17.016Z,100961.00
2022-09-03T06:11:44.212Z,100961.00
2022-09-03T06:14:13.485Z,100956.00
2022-09-03T06:16:43.524Z,100953.00
2022-09-03T06:19:11.551Z,100954.00
2022-09-03T06:21:43.083Z,100949.00
2022-09-03T06:24:28.385Z,100955.00
2022-09-03T06:26:56.603Z,100953.00
2022-09-03T06:29:23.689Z,100945.00
2022-09-03T06:31:50.762Z,100954.00
2022-09-03T06:34:18.545Z,100952.00
2022-09-03T06:36:46.246Z,100944.00
2022-09-03T06:39:12.802Z,100955.00
2022-09-03T06:41:40.088Z,100942.00
2022-09-03T06:44:11.578Z,100948.00
2022-09-03T06:46:39.912Z,100943.00
2022-09-03T06:49:06.976Z,100934.00
2022-09-03T06:51:33.835Z,100942.00
2022-09-03T06:54:06.571Z,100945.00
2022-09-03T06:56:39.583Z,100952.00
2022-09-03T06:59:15.010Z,100952.00
2022-09-03T07:01:45.097Z,100938.00
2022-09-03T07:04:14.809Z,100950.00
2022-09-03T07:06:42.659Z,100940.00
2022-09-03T07:09:11.188Z,100952.00
2022-09-03T07:11:45.728Z,100957.00
2022-09-03T07:14:14.359Z,100950.00
2022-09-03T07:16:42.614Z,100936.00
2022-09-03T07:19:09.893Z,100951.00
2022-09-03T07:21:37.029Z,100955.00
2022-09-03T07:24:05.281Z,100950.00
2022-09-03T07:26:37.342Z,100945.00
2022-09-03T07:29:07.870Z,100953.00
2022-09-03T07:31:37.648Z,100949.00
2022-09-03T07:34:10.729Z,100953.00
2022-09-03T07:36:43.311Z,100949.00
2022-09-03T07:39:11.499Z,100961.00
2022-09-03T07:41:38.390Z,100959.00
2022-09-03T07:44:08.315Z,100959.00
2022-09-03T07:46:40.406Z,100954.00
2022-09-03T07:49:07.249Z,100954.00
2022-09-03T07:51:35.979Z,100959.00
2022-09-03T07:54:06.917Z,100963.00
2022-09-03T07:56:35.111Z,100964.00
2022-09-03T07:59:03.054Z,100968.00
2022-09-03T08:01:31.647Z,100970.00
2022-09-03T08:03:58.700Z,100957.00
2022-09-03T08:06:27.285Z,100954.00
2022-09-03T08:09:04.181Z,100967.00
2022-09-03T08:11:34.648Z,100963.00
2022-09-03T08:14:03.366Z,100970.00
2022-09-03T08:16:31.431Z,100964.00
2022-09-03T08:18:58.582Z,100965.00
2022-09-03T08:21:26.254Z,100969.00
2022-09-03T08:23:54.809Z,100968.00
2022-09-03T08:26:22.542Z,100969.00
2022-09-03T08:28:49.376Z,100972.00
2022-09-03T08:31:21.641Z,100969.00
2022-09-03T08:33:50.904Z,100964.00
2022-09-03T08:36:19.844Z,100957.00
2022-09-03T08:38:46.835Z,100953.00
2022-09-03T08:41:16.810Z,100961.00
2022-09-03T08:44:24.940Z,100940.00
2022-09-03T08:46:52.951Z,100951.00
2022-09-03T08:49:25.331Z,100944.00
2022-09-03T08:51:53.052Z,100942.00
2022-09-03T08:54:22.195Z,100940.00
2022-09-03T08:56:49.373Z,100945.00
2022-09-03T08:59:16.182Z,100944.00
2022-09-03T09:01:57.114Z,100942.00
2022-09-03T09:04:55.576Z,100939.00
2022-09-03T09:07:53.632Z,100939.00
2022-09-03T09:10:44.508Z,100945.00
2022-09-03T09:13:23.476Z,100940.00
2022-09-03T09:15:55.265Z,100938.00
2022-09-03T09:18:46.795Z,100935.00
2022-09-03T09:21:20.948Z,100923.00
2022-09-03T09:23:50.067Z,100924.00
2022-09-03T09:26:21.600Z,100921.00
2022-09-03T09:29:06.277Z,100913.00
2022-09-03T09:31:36.531Z,100923.00
2022-09-03T09:34:07.644Z,100901.00
2022-09-03T09:36:45.349Z,100917.00
2022-09-03T09:39:12.543Z,100913.00
2022-09-03T09:41:39.269Z,100906.00
2022-09-03T09:44:05.778Z,100912.00
2022-09-03T09:46:38.112Z,100909.00
2022-09-03T09:49:25.902Z,100907.00
2022-09-03T09:52:02.179Z,100914.00
2022-09-03T09:54:28.789Z,100900.00
2022-09-03T09:57:06.680Z,100909.00
2022-09-03T09:59:34.285Z,100910.00
2022-09-03T10:02:22.194Z,100919.00
2022-09-03T10:04:49.652Z,100906.00
2022-09-03T10:07:23.966Z,100890.00
2022-09-03T10:10:19.908Z,100898.00
2022-09-03T10:13:11.779Z,100902.00
2022-09-03T10:15:59.035Z,100895.00
2022-09-03T10:18:45.744Z,100889.00
2022-09-03T10:21:18.588Z,100902.00
2022-09-03T10:23:57.111Z,100891.00
2022-09-03T10:26:32.076Z,100886.00
2022-09-03T10:29:05.852Z,100884.00
2022-09-03T10:31:55.357Z,100898.00
2022-09-03T10:34:40.670Z,100893.00
2022-09-03T10:37:22.245Z,100892.00
2022-09-03T10:39:59.019Z,100875.00
2022-09-03T10:42:41.128Z,100891.00
2022-09-03T10:45:10.736Z,100888.00
2022-09-03T10:48:14.516Z,100888.00
2022-09-03T10:50:51.267Z,100878.00
2022-09-03T10:53:42.447Z,100885.00
2022-09-03T10:56:39.759Z,100883.00
2022-09-03T10:59:29.293Z,100877.00
2022-09-03T11:02:44.111Z,100871.00
2022-09-03T11:05:17.905Z,100864.00
2022-09-03T11:07:48.142Z,100869.00
2022-09-03T11:10:24.911Z,100854.00
2022-09-03T11:13:16.499Z,100849.00
2022-09-03T11:15:49.917Z,100850.00
2022-09-03T11:18:29.745Z,100849.00
2022-09-03T11:21:07.710Z,100828.00
2022-09-03T11:23:39.625Z,100844.00
2022-09-03T11:26:12.595Z,100838.00
2022-09-03T11:28:59.293Z,100830.00
2022-09-03T11:31:35.825Z,100838.00
2022-09-03T11:34:22.155Z,100830.00
2022-09-03T11:36:50.456Z,100830.00
2022-09-03T11:39:23.994Z,100834.00
2022-09-03T11:42:06.660Z,100827.00
2022-09-03T11:44:51.472Z,100835.00
2022-09-03T11:47:37.937Z,100829.00
2022-09-03T11:50:15.722Z,100834.00
2022-09-03T11:52:42.250Z,100833.00
2022-09-03T11:55:08.793Z,100813.00
2022-09-03T11:57:43.332Z,100819.00
2022-09-03T12:00:13.214Z,100814.00
2022-09-03T12:02:45.630Z,100832.00
2022-09-03T12:05:37.029Z,100821.00
2022-09-03T12:08:31.492Z,100819.00
2022-09-03T12:11:27.280Z,100811.00
2022-09-03T12:14:03.459Z,100827.00
2022-09-03T12:16:57.864Z,100813.00
2022-09-03T12:19:42.851Z,100811.00
2022-09-03T12:22:16.213Z,100790.00
2022-09-03T12:24:44.499Z,100800.00
2022-09-03T12:27:24.945Z,100803.00
2022-09-03T12:30:00.025Z,100807.00
2022-09-03T12:32:37.157Z,100802.00
2022-09-03T12:35:14.352Z,100797.00
2022-09-03T12:40:32.425Z,100798.00
2022-09-03T12:46:15.440Z,100790.00
2022-09-03T12:51:52.659Z,100783.00
2022-09-03T12:54:22.068Z,100786.00
2022-09-03T12:56:57.041Z,100780.00
2022-09-03T12:59:24.737Z,100778.00
2022-09-03T13:01:57.155Z,100775.00
2022-09-03T13:04:26.978Z,100770.00
2022-09-03T13:07:06.749Z,100776.00
2022-09-03T13:09:36.861Z,100778.00
2022-09-03T13:12:08.706Z,100775.00
2022-09-03T13:14:47.663Z,100770.00
2022-09-03T13:17:53.259Z,100773.00
2022-09-03T13:20:34.765Z,100768.00
2022-09-03T13:23:16.765Z,100776.00
2022-09-03T13:26:06.269Z,100772.00
2022-09-03T13:28:48.352Z,100775.00
2022-09-03T13:31:41.155Z,100777.00
2022-09-03T13:34:32.082Z,100764.00
2022-09-03T13:37:25.813Z,100760.00
2022-09-03T13:39:56.106Z,100768.00
2022-09-03T13:42:40.971Z,100760.00
2022-09-03T13:45:23.585Z,100763.00
2022-09-03T13:48:18.616Z,100770.00
2022-09-03T13:51:11.660Z,100761.00
2022-09-03T13:54:04.615Z,100759.00
2022-09-03T13:56:56.856Z,100766.00
2022-09-03T13:59:35.414Z,100765.00
2022-09-03T14:02:05.351Z,100757.00
2022-09-03T14:04:53.613Z,100756.00
2022-09-03T14:07:44.423Z,100752.00
2022-09-03T14:10:39.870Z,100752.00
2022-09-03T14:13:12.487Z,100744.00
2022-09-03T14:16:00.826Z,100741.00
2022-09-03T14:18:54.819Z,100750.00
2022-09-03T14:21:51.545Z,100738.00
2022-09-03T14:24:27.504Z,100743.00
2022-09-03T14:26:56.892Z,100742.00
2022-09-03T14:29:28.911Z,100741.00
2022-09-03T14:32:02.141Z,100736.00
2022-09-03T14:35:10.228Z,100734.00
2022-09-03T14:38:01.701Z,100724.00
2022-09-03T14:40:42.586Z,100736.00
2022-09-03T14:43:27.963Z,100735.00
2022-09-03T14:46:17.017Z,100731.00
2022-09-03T14:49:02.216Z,100733.00
2022-09-03T14:51:47.273Z,100706.00
2022-09-03T14:54:34.932Z,100729.00
2022-09-03T14:57:32.236Z,100731.00
2022-09-03T15:00:19.814Z,100710.00
2022-09-03T15:03:05.675Z,100728.00
2022-09-03T15:06:18.785Z,100728.00
2022-09-03T15:09:16.782Z,100720.00
2022-09-03T15:11:53.879Z,100716.00
2022-09-03T15:14:20.384Z,100721.00
2022-09-03T15:17:21.660Z,100714.00
2022-09-03T15:20:08.864Z,100716.00
2022-09-03T15:22:52.188Z,100722.00
2022-09-03T15:25:34.384Z,100719.00
2022-09-03T15:28:09.239Z,100709.00
2022-09-03T15:30:54.248Z,100703.00
2022-09-03T15:33:32.400Z,100704.00
2022-09-03T15:36:18.065Z,100711.00
2022-09-03T15:39:05.497Z,100712.00
2022-09-03T15:41:45.295Z,100723.00
2022-09-03T15:44:19.532Z,100721.00
2022-09-03T15:46:54.557Z,100721.00
2022-09-03T15:49:27.828Z,100725.00
2022-09-03T15:52:24.815Z,100728.00
2022-09-03T15:55:01.761Z,100729.00
2022-09-03T15:57:43.236Z,100716.00
2022-09-03T16:00:21.725Z,100715.00
2022-09-03T16:03:01.715Z,100724.00
2022-09-03T16:05:40.320Z,100721.00
2022-09-03T16:08:17.255Z,100717.00
2022-09-03T16:10:51.034Z,100722.00
2022-09-03T16:13:36.439Z,100715.00
2022-09-03T16:16:05.965Z,100718.00
2022-09-03T16:18:40.684Z,100711.00
2022-09-03T16:21:32.499Z,100718.00
2022-09-03T16:24:34.848Z,100718.00
2022-09-03T16:27:08.697Z,100721.00
2022-09-03T16:29:38.086Z,100730.00
2022-09-03T16:32:27.521Z,100726.00
2022-09-03T16:35:12.011Z,100736.00
2022-09-03T16:37:58.630Z,100726.00
2022-09-03T16:40:38.569Z,100733.00
2022-09-03T16:43:44.487Z,100729.00
2022-09-03T16:46:23.460Z,100730.00
2022-09-03T16:49:21.897Z,100731.00
2022-09-03T16:51:57.355Z,100732.00
2022-09-03T16:54:55.849Z,100724.00
2022-09-03T16:57:47.856Z,100727.00
2022-09-03T17:00:17.161Z,100723.00
2022-09-03T17:03:05.727Z,100735.00
2022-09-03T17:05:50.790Z,100731.00
2022-09-03T17:08:25.926Z,100730.00
2022-09-03T17:11:09.247Z,100723.00
2022-09-03T17:14:13.415Z,100736.00
2022-09-03T17:17:01.106Z,100731.00
2022-09-03T17:19:54.673Z,100720.00
2022-09-03T17:22:45.365Z,100727.00
2022-09-03T17:25:35.488Z,100719.00
2022-09-03T17:28:27.315Z,100737.00
2022-09-03T17:30:58.377Z,100743.00
2022-09-03T17:33:47.112Z,100738.00
2022-09-03T17:36:33.955Z,100735.00
2022-09-03T17:40:11.221Z,100739.00
2022-09-03T17:42:41.092Z,100737.00
2022-09-03T17:45:19.865Z,100735.00
2022-09-03T17:48:02.257Z,100744.00
2022-09-03T17:50:42.123Z,100742.00
2022-09-03T17:53:52.821Z,100757.00
2022-09-03T17:57:04.883Z,100755.00
2022-09-03T17:59:42.105Z,100757.00
2022-09-03T18:02:14.603Z,100750.00
2022-09-03T18:04:53.685Z,100756.00
2022-09-03T18:07:23.606Z,100759.00
2022-09-03T18:10:04.259Z,100762.00
2022-09-03T18:13:03.045Z,100760.00
2022-09-03T18:15:53.648Z,100768.00
2022-09-03T18:18:41.641Z,100779.00
2022-09-03T18:21:32.102Z,100782.00
2022-09-03T18:24:23.497Z,100773.00
2022-09-03T18:27:17.194Z,100780.00
2022-09-03T18:30:06.061Z,100778.00
2022-09-03T18:32:51.722Z,100771.00
2022-09-03T18:35:36.893Z,100780.00
2022-09-03T18:38:25.233Z,100773.00
2022-09-03T18:41:41.528Z,100785.00
2022-09-03T18:44:41.517Z,100790.00
2022-09-03T18:51:13.329Z,100789.00
2022-09-03T18:54:13.249Z,100787.00
2022-09-03T18:57:11.802Z,100782.00
2022-09-03T19:00:13.842Z,100785.00
2022-09-03T19:03:23.570Z,100788.00
2022-09-03T19:06:40.886Z,100791.00
2022-09-03T19:09:53.085Z,100797.00
2022-09-03T19:12:59.178Z,100794.00
2022-09-03T19:15:50.584Z,100787.00
2022-09-03T19:18:47.122Z,100789.00
2022-09-03T19:21:39.108Z,100797.00
2022-09-03T19:24:24.370Z,100795.00
2022-09-03T19:27:52.107Z,100791.00
2022-09-03T19:30:39.092Z,100800.00
2022-09-03T19:33:34.477Z,100801.00
2022-09-03T19:36:36.903Z,100803.00
2022-09-03T19:39:25.303Z,100799.00
2022-09-03T19:42:27.862Z,100808.00
2022-09-03T19:45:31.629Z,100801.00
2022-09-03T19:48:39.602Z,100807.00
2022-09-03T19:51:34.169Z,100803.00
2022-09-03T19:54:22.173Z,100808.00
2022-09-03T19:57:08.927Z,100797.00
2022-09-03T19:59:58.181Z,100805.00
2022-09-03T20:02:43.713Z,100811.00
2022-09-03T20:05:40.186Z,100818.00
2022-09-03T20:08:26.593Z,100816.00
2022-09-03T20:10:56.403Z,100819.00
2022-09-03T20:13:22.969Z,100813.00
2022-09-03T20:16:07.917Z,100828.00
2022-09-03T20:19:04.339Z,100825.00
2022-09-03T20:21:35.238Z,100827.00
2022-09-03T20:24:15.716Z,100829.00
2022-09-03T20:27:09.408Z,100837.00
2022-09-03T20:29:48.654Z,100829.00
2022-09-03T20:32:47.806Z,100819.00
2022-09-03T20:36:08.014Z,100830.00
2022-09-03T20:39:01.232Z,100835.00
2022-09-03T20:42:46.087Z,100833.00
2022-09-03T20:45:24.161Z,100826.00
2022-09-03T20:47:59.813Z,100830.00
2022-09-03T20:51:02.644Z,100831.00
2022-09-03T20:53:37.668Z,100835.00
2022-09-03T20:56:42.597Z,100837.00
2022-09-03T20:59:39.419Z,100838.00
2022-09-03T21:02:29.586Z,100847.00
2022-09-03T21:05:20.126Z,100826.00
2022-09-03T21:08:32.811Z,100844.00
2022-09-03T21:11:30.938Z,100836.00
2022-09-03T21:14:20.414Z,100838.00
2022-09-03T21:17:28.498Z,100833.00
2022-09-03T21:20:10.399Z,100844.00
2022-09-03T21:22:45.699Z,100844.00
2022-09-03T21:25:16.781Z,100849.00
2022-09-03T21:27:54.957Z,100845.00
2022-09-03T21:30:21.818Z,100855.00
2022-09-03T21:33:01.341Z,100849.00
2022-09-03T21:35:42.906Z,100854.00
2022-09-03T21:38:27.259Z,100858.00
2022-09-03T21:41:08.480Z,100850.00
2022-09-03T21:43:43.366Z,100859.00
2022-09-03T21:46:17.660Z,100865.00
2022-09-03T21:48:51.615Z,100864.00
2022-09-03T21:51:31.538Z,100870.00
2022-09-03T21:54:20.710Z,100858.00
2022-09-03T21:56:56.728Z,100865.00
2022-09-03T21:59:23.419Z,100871.00
2022-09-03T22:02:09.729Z,100876.00
2022-09-03T22:04:36.510Z,100869.00
2022-09-03T22:07:40.758Z,100871.00
2022-09-03T22:10:25.902Z,100876.00
2022-09-03T22:13:09.198Z,100879.00
2022-09-03T22:15:38.961Z,100871.00
2022-09-03T22:18:29.212Z,100873.00
2022-09-03T22:21:11.326Z,100882.00
2022-09-03T22:23:43.645Z,100880.00
2022-09-03T22:26:23.480Z,100882.00
2022-09-03T22:29:03.723Z,100878.00
2022-09-03T22:31:53.119Z,100885.00
2022-09-03T22:34:25.820Z,100881.00
2022-09-03T22:37:01.493Z,100884.00
2022-09-03T22:39:36.596Z,100890.00
2022-09-03T22:42:31.796Z,100886.00
2022-09-03T22:45:16.773Z,100896.00
2022-09-03T22:47:48.971Z,100897.00
2022-09-03T22:50:48.063Z,100893.00
2022-09-03T22:53:33.274Z,100898.00
2022-09-03T22:56:07.230Z,100901.00
2022-09-03T22:58:46.475Z,100895.00
2022-09-03T23:01:26.513Z,100904.00
2022-09-03T23:04:05.993Z,100908.00
2022-09-03T23:06:36.377Z,100914.00
2022-09-03T23:09:06.502Z,100908.00
2022-09-03T23:11:52.575Z,100916.00
2022-09-03T23:14:22.963Z,100921.00
2022-09-03T23:16:56.587Z,100918.00
2022-09-03T23:19:40.271Z,100919.00
2022-09-03T23:22:38.850Z,100921.00
2022-09-03T23:25:18.531Z,100918.00
2022-09-03T23:27:50.968Z,100914.00
2022-09-03T23:30:17.557Z,100917.00
2022-09-03T23:32:44.223Z,100919.00
2022-09-03T23:35:19.429Z,100924.00
2022-09-03T23:38:02.211Z,100924.00
2022-09-03T23:40:48.099Z,100924.00
2022-09-03T23:43:43.523Z,100925.00
2022-09-03T23:46:26.269Z,100928.00
2022-09-03T23:49:16.231Z,100928.00
2022-09-03T23:51:55.001Z,100925.00
2022-09-03T23:54:47.759Z,100934.00
2022-09-03T23:57:36.013Z,100930.00
